createdAt,value
2018-09-11T00:00:03.414Z,2
2018-09-11T00:03:03.437Z,2.3
2018-09-11T00:06:03.659Z,1.9
2018-09-11T00:09:03.423Z,2.1
2018-09-11T00:12:03.438Z,2.2
2018-09-11T00:15:03.389Z,2.3
2018-09-11T00:18:03.353Z,3.7
2018-09-11T00:21:03.571Z,2.1
2018-09-11T00:24:03.314Z,2.9
2018-09-11T00:27:03.286Z,2.4
2018-09-11T00:30:03.441Z,2.2
2018-09-11T00:33:03.656Z,2.3
2018-09-11T00:36:03.530Z,2.3
2018-09-11T00:39:03.545Z,2.3
2018-09-11T00:42:03.447Z,2.1
2018-09-11T00:45:03.302Z,1.9
2018-09-11T00:48:03.364Z,2.8
2018-09-11T00:51:03.357Z,1.9
2018-09-11T00:54:03.418Z,2
2018-09-11T00:57:03.468Z,2
2018-09-11T01:00:03.493Z,2.2
2018-09-11T01:03:03.368Z,2.2
2018-09-11T01:06:03.409Z,2.2
2018-09-11T01:09:03.436Z,2.1
2018-09-11T01:12:03.379Z,2.6
2018-09-11T01:15:03.296Z,2.2
2018-09-11T01:18:03.606Z,2.1
2018-09-11T01:21:03.590Z,2
2018-09-11T01:24:03.495Z,1.8
2018-09-11T01:27:03.835Z,1.9
2018-09-11T01:30:03.580Z,2
2018-09-11T01:33:03.456Z,2.1
2018-09-11T01:36:03.327Z,2.7
2018-09-11T01:39:03.317Z,2.1
2018-09-11T01:42:03.365Z,2.1
2018-09-11T01:45:03.419Z,2.5
2018-09-11T01:48:03.440Z,2.2
2018-09-11T01:51:03.276Z,1.9
2018-09-11T01:54:03.476Z,2
2018-09-11T01:57:03.371Z,2.6
2018-09-11T02:00:03.401Z,1.9
2018-09-11T02:03:03.402Z,2.1
2018-09-11T02:06:03.429Z,2.2
2018-09-11T02:09:03.378Z,1.9
2018-09-11T02:12:03.207Z,2
2018-09-11T02:15:03.470Z,2.1
2018-09-11T02:18:03.215Z,2.2
2018-09-11T02:21:03.602Z,2.5
2018-09-11T02:24:03.520Z,2
2018-09-11T02:27:03.447Z,2.7
2018-09-11T02:30:03.528Z,2.1
2018-09-11T02:33:03.398Z,2.1
2018-09-11T02:36:03.470Z,2
2018-09-11T02:39:03.607Z,2.2
2018-09-11T02:42:03.376Z,2.2
2018-09-11T02:45:03.430Z,2.7
2018-09-11T02:48:03.498Z,2.2
2018-09-11T02:51:03.434Z,2.2
2018-09-11T02:54:03.666Z,2.1
2018-09-11T02:57:03.473Z,1.9
2018-09-11T03:00:03.985Z,2
2018-09-11T03:03:03.477Z,2.1
2018-09-11T03:06:03.162Z,2.1
2018-09-11T03:09:03.420Z,2.2
2018-09-11T03:12:03.256Z,2.3
2018-09-11T03:15:03.460Z,2.1
2018-09-11T03:18:03.330Z,2.2
2018-09-11T03:21:03.451Z,1.9
2018-09-11T03:24:03.558Z,2.1
2018-09-11T03:27:03.347Z,2.1
2018-09-11T03:30:03.303Z,2.1
2018-09-11T03:33:03.409Z,1.9
2018-09-11T03:36:03.412Z,2.1
2018-09-11T03:39:03.528Z,2.2
2018-09-11T03:42:03.342Z,2.2
2018-09-11T03:45:03.417Z,2.1
2018-09-11T03:48:03.597Z,2.2
2018-09-11T03:51:03.479Z,2.7
2018-09-11T03:54:03.417Z,2.3
2018-09-11T03:57:03.354Z,2.2
2018-09-11T04:00:03.418Z,2
2018-09-11T04:03:03.540Z,2.2
2018-09-11T04:06:03.692Z,2.1
2018-09-11T04:09:03.463Z,2.2
2018-09-11T04:12:03.522Z,2.2
2018-09-11T04:15:03.270Z,2.2
2018-09-11T04:18:03.422Z,2.3
2018-09-11T04:21:03.229Z,2.3
2018-09-11T04:24:03.466Z,2.2
2018-09-11T04:27:03.328Z,2.2
2018-09-11T04:30:03.596Z,2.1
2018-09-11T04:33:03.472Z,2.3
2018-09-11T04:36:03.628Z,2.2
2018-09-11T04:39:03.343Z,2.4
2018-09-11T04:42:03.262Z,2.3
2018-09-11T04:45:03.461Z,2.1
2018-09-11T04:48:03.552Z,2
2018-09-11T04:51:03.222Z,2.2
2018-09-11T04:54:03.328Z,2.2
2018-09-11T04:57:03.233Z,2.3
2018-09-11T05:00:03.396Z,2
2018-09-11T05:03:03.222Z,2.2
2018-09-11T05:06:03.370Z,2
2018-09-11T05:09:03.422Z,2.1
2018-09-11T05:12:03.393Z,2.2
2018-09-11T05:15:03.664Z,2.1
2018-09-11T05:18:03.526Z,2.6
2018-09-11T05:21:03.380Z,2.3
2018-09-11T05:24:03.560Z,2.3
2018-09-11T05:27:03.321Z,2.2
2018-09-11T05:30:03.291Z,2.1
2018-09-11T05:33:03.512Z,2.3
2018-09-11T05:36:03.508Z,2.2
2018-09-11T05:39:04.037Z,2.2
2018-09-11T05:42:03.356Z,2
2018-09-11T05:45:03.740Z,2.3
2018-09-11T05:48:03.412Z,2.3
2018-09-11T05:51:03.469Z,2.3
2018-09-11T05:54:03.186Z,2.2
2018-09-11T05:57:03.271Z,2.1
2018-09-11T06:00:03.413Z,8.1
2018-09-11T06:03:03.372Z,8.3
2018-09-11T06:06:03.474Z,8.8
2018-09-11T06:09:03.285Z,9.9
2018-09-11T06:12:03.515Z,9.3
2018-09-11T06:15:03.479Z,11.4
2018-09-11T06:18:03.418Z,10.3
2018-09-11T06:21:03.272Z,6.7
2018-09-11T06:24:03.121Z,7.2
2018-09-11T06:27:03.283Z,9.8
2018-09-11T06:30:03.304Z,9.3
2018-09-11T06:33:03.294Z,7.2
2018-09-11T06:36:03.138Z,7.6
2018-09-11T06:39:03.293Z,6.7
2018-09-11T06:42:03.351Z,7.6
2018-09-11T06:45:03.311Z,6.4
2018-09-11T06:48:03.419Z,8.1
2018-09-11T06:51:03.200Z,6.7
2018-09-11T06:54:03.513Z,7.2
2018-09-11T06:57:03.389Z,7.3
2018-09-11T07:00:03.265Z,6.5
2018-09-11T07:03:03.701Z,6
2018-09-11T07:06:03.210Z,5.3
2018-09-11T07:09:03.321Z,7.5
2018-09-11T07:12:03.254Z,6
2018-09-11T07:15:03.252Z,6.7
2018-09-11T07:18:03.257Z,5.8
2018-09-11T07:21:03.342Z,5.4
2018-09-11T07:24:03.393Z,5
2018-09-11T07:27:03.424Z,5.8
2018-09-11T07:30:03.938Z,5.9
2018-09-11T07:33:04.269Z,5
2018-09-11T07:36:03.315Z,5.1
2018-09-11T07:39:03.475Z,5.5
2018-09-11T07:42:03.228Z,5
2018-09-11T07:45:03.379Z,5.2
2018-09-11T07:48:03.310Z,5.2
2018-09-11T07:51:03.265Z,4.7
2018-09-11T07:54:03.293Z,5.2
2018-09-11T07:57:03.442Z,5.1
2018-09-11T08:00:03.458Z,5.1
2018-09-11T08:03:04.004Z,5.7
2018-09-11T08:06:03.296Z,5.3
2018-09-11T08:09:03.571Z,5.1
2018-09-11T08:12:04.452Z,4.7
2018-09-11T08:15:03.825Z,5.1
2018-09-11T08:18:03.734Z,4.6
2018-09-11T08:21:03.563Z,5.5
2018-09-11T08:24:03.348Z,4.5
2018-09-11T08:27:03.228Z,4.5
2018-09-11T08:30:03.599Z,4.5
2018-09-11T08:33:03.372Z,4.6
2018-09-11T08:36:03.473Z,4.7
2018-09-11T08:39:03.495Z,4.6
2018-09-11T08:42:03.591Z,4.5
2018-09-11T08:45:03.295Z,4.4
2018-09-11T08:48:03.325Z,4.7
2018-09-11T08:51:03.253Z,5.6
2018-09-11T08:54:03.347Z,4.4
2018-09-11T08:57:03.394Z,4.6
2018-09-11T09:00:03.275Z,4.4
2018-09-11T09:03:03.180Z,4.2
2018-09-11T09:06:03.251Z,4.6
2018-09-11T09:09:03.300Z,6.3
2018-09-11T09:12:03.178Z,4.3
2018-09-11T09:15:03.334Z,17.2
2018-09-11T09:18:03.326Z,6.6
2018-09-11T09:21:04.392Z,7.2
2018-09-11T09:24:03.387Z,7.5
2018-09-11T09:27:04.042Z,7.4
2018-09-11T09:30:03.966Z,6.2
2018-09-11T09:33:03.346Z,5.5
2018-09-11T09:36:03.343Z,5.8
2018-09-11T09:39:03.213Z,6.2
2018-09-11T09:42:03.265Z,4.9
2018-09-11T09:45:03.487Z,5.5
2018-09-11T09:48:03.251Z,5.3
2018-09-11T09:51:03.462Z,8.4
2018-09-11T09:54:03.419Z,5.7
2018-09-11T09:57:03.114Z,5.3
2018-09-11T10:00:03.486Z,4.6
2018-09-11T10:03:03.467Z,4.1
2018-09-11T10:06:03.301Z,5.3
2018-09-11T10:09:03.274Z,4.3
2018-09-11T10:12:03.281Z,4.6
2018-09-11T10:15:03.335Z,4.8
2018-09-11T10:18:03.360Z,4.4
2018-09-11T10:21:03.525Z,5.6
2018-09-11T10:24:03.249Z,3.7
2018-09-11T10:27:03.341Z,4.3
2018-09-11T10:30:03.396Z,4.6
2018-09-11T10:33:03.745Z,4.2
2018-09-11T10:36:03.415Z,4.5
2018-09-11T10:39:03.210Z,3.9
2018-09-11T10:42:03.185Z,3.9
2018-09-11T10:45:04.510Z,4.1
2018-09-11T10:48:03.367Z,3.9
2018-09-11T10:51:03.364Z,3.7
2018-09-11T10:54:03.435Z,4.2
2018-09-11T10:57:03.374Z,4.1
2018-09-11T11:00:03.116Z,4.6
2018-09-11T11:03:03.299Z,4.2
2018-09-11T11:06:03.173Z,4.5
2018-09-11T11:09:03.262Z,4.5
2018-09-11T11:12:03.257Z,4.6
2018-09-11T11:15:04.323Z,3.6
2018-09-11T11:18:03.152Z,3.8
2018-09-11T11:21:03.297Z,4.6
2018-09-11T11:24:03.305Z,3.9
2018-09-11T11:27:04.173Z,3.4
2018-09-11T11:30:03.273Z,3.7
2018-09-11T11:33:03.421Z,3.8
2018-09-11T11:36:04.225Z,3.6
2018-09-11T11:39:03.244Z,3.6
2018-09-11T11:42:03.356Z,3.6
2018-09-11T11:45:03.231Z,4.2
2018-09-11T11:48:03.542Z,3.4
2018-09-11T11:51:03.113Z,3.5
2018-09-11T11:54:03.224Z,3.5
2018-09-11T11:57:03.563Z,3.4
2018-09-11T12:00:03.233Z,3.6
2018-09-11T12:03:03.178Z,3.2
2018-09-11T12:06:03.189Z,4.6
2018-09-11T12:09:03.282Z,3.4
2018-09-11T12:12:03.425Z,3.5
2018-09-11T12:15:03.425Z,3.4
2018-09-11T12:18:03.385Z,3.4
2018-09-11T12:21:03.330Z,3.4
2018-09-11T12:24:03.641Z,3.4
2018-09-11T12:27:03.346Z,4.6
2018-09-11T12:30:03.369Z,3.5
2018-09-11T12:33:03.028Z,3.6
2018-09-11T12:36:03.309Z,4.1
2018-09-11T12:39:03.177Z,3.5
2018-09-11T12:42:03.338Z,3.3
2018-09-11T12:45:03.265Z,3.2
2018-09-11T12:48:09.983Z,3.4
2018-09-11T12:51:03.472Z,3.5
2018-09-11T12:54:03.648Z,4.4
2018-09-11T12:57:03.292Z,3.5
2018-09-11T13:00:03.225Z,3.2
2018-09-11T13:03:03.199Z,3.3
2018-09-11T13:06:03.243Z,3.3
2018-09-11T13:09:03.988Z,3
2018-09-11T13:12:03.203Z,3.2
2018-09-11T13:15:04.232Z,3.2
2018-09-11T13:18:03.111Z,3.3
2018-09-11T13:21:03.282Z,3.3
2018-09-11T13:24:03.250Z,3
2018-09-11T13:27:03.308Z,3.1
2018-09-11T13:30:03.395Z,3
2018-09-11T13:33:03.283Z,3
2018-09-11T13:36:03.238Z,3.1
2018-09-11T13:39:03.363Z,3.1
2018-09-11T13:42:03.611Z,3.1
2018-09-11T13:45:03.226Z,3.3
2018-09-11T13:48:03.557Z,3.3
2018-09-11T13:51:03.395Z,3.5
2018-09-11T13:54:03.415Z,3.2
2018-09-11T13:57:03.384Z,3.2
2018-09-11T14:00:03.184Z,3.1
2018-09-11T14:03:03.491Z,2.9
2018-09-11T14:06:03.292Z,3
2018-09-11T14:09:03.387Z,3.1
2018-09-11T14:12:03.606Z,2.9
2018-09-11T14:15:03.064Z,3.1
2018-09-11T14:18:03.356Z,3.1
2018-09-11T14:21:03.546Z,3.3
2018-09-11T14:24:03.256Z,2.9
2018-09-11T14:27:03.363Z,3
2018-09-11T14:30:03.322Z,3.7
2018-09-11T14:33:03.192Z,4.9
2018-09-11T14:36:03.160Z,6.3
2018-09-11T14:39:03.251Z,3.8
2018-09-11T14:42:03.230Z,3.5
2018-09-11T14:45:03.194Z,3.3
2018-09-11T14:48:03.138Z,3
2018-09-11T14:51:03.301Z,2.8
2018-09-11T14:54:03.509Z,3.6
2018-09-11T14:57:03.112Z,3
2018-09-11T15:00:03.138Z,3.2
2018-09-11T15:03:03.263Z,3
2018-09-11T15:06:03.144Z,3.1
2018-09-11T15:09:03.824Z,3.2
2018-09-11T15:12:03.265Z,2.9
2018-09-11T15:15:04.170Z,2.9
2018-09-11T15:18:03.258Z,3.1
2018-09-11T15:21:03.206Z,2.9
2018-09-11T15:24:03.205Z,3
2018-09-11T15:27:03.352Z,2.8
2018-09-11T15:30:04.868Z,2.9
2018-09-11T15:33:03.149Z,3.7
2018-09-11T15:36:04.318Z,2.6
2018-09-11T15:39:03.252Z,3.1
2018-09-11T15:42:03.305Z,3
2018-09-11T15:45:03.621Z,3.1
2018-09-11T15:48:03.206Z,3.2
2018-09-11T15:51:03.241Z,2.7
2018-09-11T15:54:03.073Z,3
2018-09-11T15:57:03.033Z,2.8
2018-09-11T16:00:03.271Z,2.9
2018-09-11T16:03:03.195Z,2.9
2018-09-11T16:06:03.144Z,2.8
2018-09-11T16:09:03.370Z,2.9
2018-09-11T16:12:03.334Z,2.9
2018-09-11T16:15:04.135Z,2.7
2018-09-11T16:18:02.949Z,2.8
2018-09-11T16:21:03.939Z,2.9
2018-09-11T16:24:03.389Z,2.8
2018-09-11T16:27:03.417Z,2.7
2018-09-11T16:30:04.219Z,2.8
2018-09-11T16:33:03.231Z,2.7
2018-09-11T16:36:03.110Z,2.7
2018-09-11T16:39:03.217Z,2.7
2018-09-11T16:42:03.287Z,3
2018-09-11T16:45:03.260Z,2.7
2018-09-11T16:48:03.185Z,2.9
2018-09-11T16:51:03.318Z,2.7
2018-09-11T16:54:03.306Z,2.8
2018-09-11T16:57:03.388Z,2.8
2018-09-11T17:00:03.152Z,2.7
2018-09-11T17:03:03.221Z,2.8
2018-09-11T17:06:03.342Z,2.6
2018-09-11T17:09:03.309Z,2.5
2018-09-11T17:12:03.305Z,2.8
2018-09-11T17:15:03.118Z,3.5
2018-09-11T17:18:03.085Z,2.6
2018-09-11T17:21:03.059Z,2.6
2018-09-11T17:24:03.222Z,2.8
2018-09-11T17:27:03.752Z,2.7
2018-09-11T17:30:03.377Z,2.5
2018-09-11T17:33:03.309Z,2.5
2018-09-11T17:36:03.268Z,2.5
2018-09-11T17:39:03.095Z,2.6
2018-09-11T17:42:03.170Z,3.1
2018-09-11T17:45:03.147Z,2.6
2018-09-11T17:48:03.617Z,2.5
2018-09-11T17:51:03.289Z,2.7
2018-09-11T17:54:03.545Z,2.5
2018-09-11T17:57:03.286Z,2.7
2018-09-11T18:00:03.308Z,2.6
2018-09-11T18:03:04.115Z,2.6
2018-09-11T18:06:03.287Z,2.5
2018-09-11T18:09:03.242Z,2.5
2018-09-11T18:12:03.071Z,2.4
2018-09-11T18:15:03.277Z,2.3
2018-09-11T18:18:03.189Z,2.5
2018-09-11T18:21:03.447Z,2.6
2018-09-11T18:24:03.285Z,2.2
2018-09-11T18:27:03.058Z,2.5
2018-09-11T18:30:03.225Z,2.4
2018-09-11T18:33:03.081Z,2.5
2018-09-11T18:36:03.043Z,2.5
2018-09-11T18:39:03.055Z,2.5
2018-09-11T18:42:03.487Z,6.6
2018-09-11T18:45:04.383Z,6.7
2018-09-11T18:48:03.207Z,5.6
2018-09-11T18:51:03.126Z,5.3
2018-09-11T18:54:03.187Z,23.7
2018-09-11T18:57:03.223Z,4.9
2018-09-11T19:00:03.194Z,6.5
2018-09-11T19:03:03.212Z,7.3
2018-09-11T19:06:03.253Z,9.1
2018-09-11T19:09:03.178Z,9.3
2018-09-11T19:12:03.178Z,7.9
2018-09-11T19:15:03.247Z,5.8
2018-09-11T19:18:03.064Z,7.5
2018-09-11T19:21:03.193Z,9.5
2018-09-11T19:24:02.973Z,7.8
2018-09-11T19:27:03.742Z,6.7
2018-09-11T19:30:03.173Z,6.2
2018-09-11T19:33:03.062Z,6.7
2018-09-11T19:36:03.435Z,8.1
2018-09-11T19:39:03.229Z,5.6
2018-09-11T19:42:03.531Z,6.9
2018-09-11T19:45:03.279Z,6.9
2018-09-11T19:48:03.004Z,7.7
2018-09-11T19:51:03.461Z,8
2018-09-11T19:54:02.972Z,9.7
2018-09-11T19:57:03.149Z,5
2018-09-11T20:00:03.211Z,7.9
2018-09-11T20:03:03.109Z,7.5
2018-09-11T20:06:03.219Z,9.8
2018-09-11T20:09:03.265Z,6.5
2018-09-11T20:12:03.230Z,6.5
2018-09-11T20:15:03.076Z,5.6
2018-09-11T20:18:02.931Z,6.1
2018-09-11T20:21:03.187Z,6.9
2018-09-11T20:24:03.264Z,6.6
2018-09-11T20:27:03.155Z,6.6
2018-09-11T20:30:03.519Z,5
2018-09-11T20:33:03.457Z,5.3
2018-09-11T20:36:03.176Z,4.5
2018-09-11T20:39:03.669Z,5.5
2018-09-11T20:42:03.183Z,4.6
2018-09-11T20:45:04.430Z,5.5
2018-09-11T20:48:03.188Z,5.5
2018-09-11T20:51:03.062Z,4.7
2018-09-11T20:54:03.224Z,3.1
2018-09-11T20:57:03.168Z,3.2
2018-09-11T21:00:03.226Z,5.4
2018-09-11T21:03:03.153Z,4.3
2018-09-11T21:06:03.431Z,4.8
2018-09-11T21:09:03.099Z,4
2018-09-11T21:12:03.281Z,3.7
2018-09-11T21:15:02.967Z,5.7
2018-09-11T21:18:03.136Z,3.2
2018-09-11T21:21:03.210Z,4.5
2018-09-11T21:24:02.966Z,4.2
2018-09-11T21:27:03.219Z,3.5
2018-09-11T21:30:03.018Z,3.7
2018-09-11T21:33:03.088Z,2.5
2018-09-11T21:36:03.039Z,5.6
2018-09-11T21:39:03.155Z,3.8
2018-09-11T21:42:03.378Z,4.6
2018-09-11T21:45:03.399Z,3.3
2018-09-11T21:48:03.184Z,3.2
2018-09-11T21:51:03.268Z,4.2
2018-09-11T21:54:03.163Z,2.8
2018-09-11T21:57:03.096Z,3.4
2018-09-11T22:00:03.716Z,2.7
2018-09-11T22:03:03.084Z,3
2018-09-11T22:06:02.964Z,4.1
2018-09-11T22:09:02.950Z,6.1
2018-09-11T22:12:04.274Z,3
2018-09-11T22:15:03.085Z,2.6
2018-09-11T22:18:02.992Z,3.7
2018-09-11T22:21:03.279Z,4.7
2018-09-11T22:24:03.080Z,2.8
2018-09-11T22:27:03.022Z,3.3
2018-09-11T22:30:03.171Z,2.7
2018-09-11T22:33:02.927Z,3.4
2018-09-11T22:36:03.180Z,3.6
2018-09-11T22:39:03.004Z,3
2018-09-11T22:42:03.074Z,2.7
2018-09-11T22:45:02.984Z,2.5
2018-09-11T22:48:03.007Z,2.8
2018-09-11T22:51:03.104Z,3.6
2018-09-11T22:54:03.035Z,3.2
2018-09-11T22:57:03.079Z,3.1
2018-09-11T23:00:03.191Z,4
2018-09-11T23:03:03.077Z,4.3
2018-09-11T23:06:03.342Z,2.8
2018-09-11T23:09:03.034Z,2.6
2018-09-11T23:12:03.124Z,2.8
2018-09-11T23:15:03.127Z,2.7
2018-09-11T23:18:02.920Z,2.4
2018-09-11T23:21:03.247Z,2.4
2018-09-11T23:24:02.948Z,2.9
2018-09-11T23:27:03.152Z,3
2018-09-11T23:30:03.042Z,3.5
2018-09-11T23:33:03.161Z,2.5
2018-09-11T23:36:03.080Z,2.6
2018-09-11T23:39:03.524Z,3.3
2018-09-11T23:42:03.057Z,2.1
2018-09-11T23:45:03.003Z,2.5
2018-09-11T23:48:03.230Z,2.5
2018-09-11T23:51:03.166Z,4
2018-09-11T23:54:03.158Z,2.4
2018-09-11T23:57:03.115Z,2.9
